Logo AVAMET
Benvolgut visitant, si us plau, ingressa Recuperar contrasenya
AVAMET paisatges

Torrevella Patricio Pérez

Dades diàries. Acumulats / Últims 30 dies disponibles

Data Temperatura (°C) Humitat rel. (%) Pressió rel. (hPa) Vent (km/h) Precipitació
Mínima Mitjana Màxima Amplitud
tèrmica
Mínima Mitjana Màxima Mínima Mitjana Màxima Predom. Mitjana Ràfega
màxima
Total
(mm)
Índex-n
Mínima Mitjana Màxima Mínima Mitjana Màxima n
0 a 1
P0 max
mm 5'
Dades mensuals acumulades fins l'últim dia disponible
07/2020 23,7 23,8 23,9 26,2 27,5 28,5 29,4 5,7 57 78 93 1.009 1.012 1.014   34,0 0,0
Dades anuals acumulades fins l'últim dia disponible
2020 6,7 14,7 23,9 17,7 12,3 20,7 30,3 23,6 24 74 98 1.002 1.018 1.035   5,0 72,0 235,4
Últims 30 dies disponibles
02-07-2020 23,9     25,7     27,5 3,6 76 85 93 1.010 1.012 1.014 26,0 0,0
01-07-2020 23,7     26,6     29,4 5,7 57 72 87 1.009 1.011 1.013 34,0 0,0
30-06-2020 23,5     25,4     27,2 3,7 74 83 92 1.010 1.013 1.015 34,0 0,0
29-06-2020 22,4     24,8     27,1 4,7 72 83 94 1.013 1.015 1.017 19,0 0,0
28-06-2020 21,9     23,8     25,7 3,8 79 86 93 1.015 1.017 1.018 23,0 0,0
27-06-2020 22,6     25,0     27,4 4,8 73 82 91 1.013 1.015 1.016 23,0 0,0
26-06-2020 22,1     24,2     26,4 4,3 68 78 88 1.012 1.014 1.015 24,0 0,0
25-06-2020 22,0     25,1     28,2 6,2 44 65 85 1.013 1.015 1.017 39,0 0,0
24-06-2020 21,6     24,1     26,6 5,0 62 74 86 1.015 1.017 1.018 32,0 0,0
23-06-2020 21,8     24,1     26,4 4,6 62 71 80 1.016 1.018 1.020 31,0 0,0
22-06-2020 21,6     24,3     27,0 5,4 57 75 93 1.019 1.021 1.022 26,0 0,0
21-06-2020 21,2     23,4     25,5 4,3 64 77 90 1.019 1.021 1.022 19,0 0,0
20-06-2020 20,8     22,8     24,7 3,9 74 82 89 1.019 1.021 1.022 24,0 0,0
19-06-2020 22,0     23,4     24,8 2,8 69 80 90 1.014 1.018 1.021 23,0 0,0
18-06-2020 20,9     22,7     24,5 3,6 77 85 92 1.012 1.014 1.016 27,0 0,0
17-06-2020 19,9     21,9     23,8 3,9 80 87 94 1.013 1.015 1.016 24,0 0,0
16-06-2020 19,7     22,4     25,0 5,3 63 77 90 1.014 1.016 1.018 26,0 0,0
15-06-2020 19,6     23,3     27,0 7,4 49 69 89 1.017 1.019 1.020 23,0 0,0
14-06-2020 18,8     21,7     24,6 5,8 53 71 88 1.016 1.018 1.019 23,0 0,0
13-06-2020 20,3     23,2     26,1 5,8 37 57 76 1.009 1.013 1.017 39,0 0,0
12-06-2020 20,9     23,4     25,8 4,9 41 58 75 1.004 1.007 1.009 48,0 0,0
11-06-2020 18,8     22,6     26,3 7,5 50 71 91 1.002 1.008 1.013 44,0 0,0
10-06-2020 18,1     20,8     23,4 5,3 70 81 91 1.012 1.015 1.017 23,0 0,0
09-06-2020 17,5     20,2     22,9 5,4 67 79 91 1.015 1.016 1.017 26,0 0,2
08-06-2020 16,7     20,8     24,9 8,2 55 76 96 1.009 1.013 1.016 44,0 6,0
07-06-2020 22,3     26,3     30,3 8,0 33 55 77 1.005 1.007 1.009 37,0 0,0
06-06-2020 20,4     23,2     26,0 5,6 65 76 86 1.004 1.008 1.011 31,0 0,0
05-06-2020 19,5     23,9     28,2 8,7 39 61 82 1.009 1.011 1.012 40,0 0,0
04-06-2020 20,7     25,4     30,1 9,4 36 61 86 1.003 1.006 1.009 42,0 1,4
03-06-2020 19,2     22,2     25,3 6,1 72 83 93 1.004 1.009 1.014 35,0 0,0
Últims 13 mesos disponibles
06/2020 16,7 20,5 23,5 23,2 22,9 26,0 30,3 13,6 55 75 87 1.006 1.014 1.021 48,0 7,6
05/2020 13,6 17,9 20,7 20,8 19,8 23,7 28,3 14,7 58 73 85 1.007 1.016 1.026 48,0 38,8
04/2020 11,1 14,2 17,6 16,9 16,7 19,6 25,1 14,0 57 77 88 1.007 1.016 1.026 50,0 33,2
03/2020 8,8 12,7 16,3 15,7 12,7 18,7 25,1 16,3 43 71 91 1.009 1.017 1.025 66,0 85,0
02/2020 8,5 12,1 15,9 15,4 15,1 18,8 26,1 17,6 54 76 89 1.015 1.026 1.033 42,0 2,4
01/2020 6,7 9,3 14,1 12,7 12,3 16,2 21,9 15,2 61 75 87 1.014 1.024 1.032 O 0,2 72,0 68,4
12/2019 8,0 11,9 16,9 14,7 12,4 18,1 23,6 15,6 47 74 90 1.005 1.020 1.033 OSO 6,9 66,0 93,6
11/2019 8,7 13,1 20,8 16,1 15,1 19,9 27,9 19,2 48 61 90 1.001 1.012 1.019 O 7,8 64,4 12,6
10/2019 11,9 17,9 23,3 20,9 16,7 24,6 30,5 18,6 52 73 91 1.009 1.016 1.022 OSO 5,2 41,8 42,6
09/2019 16,3 21,7 24,8 24,2 22,6 27,0 29,7 13,4 53 79 93 1.010 1.017 1.021 S 6,8 54,7 153,8
08/2019 21,6 24,1 26,6 26,5 27,7 29,2 35,4 13,8 66 79 87 1.010 1.015 1.019 S 6,2 43,5 26,0
07/2019 22,6 24,2 25,9 26,5 25,7 29,5 35,7 13,1 54 75 86 1.006 1.013 1.019 SSE 7,2 48,3 0,6
06/2019 16,3 20,0 24,2 22,7 21,6 25,6 32,9 16,6 55 73 86 1.008 1.014 1.022 SSE 7,5 49,9 0,0
Tots els anys disponibles
2019 4,6 16,3 26,6 19,2 12,3 22,5 35,7 31,1 35 72 94 997 1.016 1.033 S 6,8 75,6 547,2
2018 4,3 15,9 27,8 18,9 11,6 22,1 33,2 28,9 43 70 91 983 1.016 1.033 OSO 1,5 72,0 360,4
2017 1,1 16,2 27,6 19,3 7,1 22,3 33,6 32,5 37 71 89 1.000 1.018 1.036 SSO 0,1 71,0 219,0
2016 5,4 16,4 25,7 19,4 12,6 22,3 36,1 30,7 36 71 90 998 1.018 1.037 71,0 274,2
2015 4,2 16,3 23,6 19,4 22,4 22,4 36,6 32,4 59 70 77 1.014 1.019 1.030 82,0 219,0
2014 5,5 16,2 26,3 19,2 11,7 22,2 33,6 28,1 33 69 89 993 1.016 1.033 69,0 240,4
2013 5,0 16,1 19,9 19,0 19,9 22,1 32,8 27,8 57 68 76 993 1.014 1.025 71,0 268,6
Temperatura (°C)
Humitat relativa (%)
Velocitat del vent i ràfega màxima (km/h)
Direcció del vent (°)
Pressió (hPa)
Precipitació (mm)
Nota sobre les dades: s'avisa a l'usuari de la provisionalitat i no oficialitat d'aquestes dades
Logo AVAMET blanc
Web allotjada a Sollutia
Llicència de Creative CommonsLa web d'AVAMET i els seus continguts estan subjectes a una llicència de
Reconeixement - No Comercial - Compartir igual
Últimes estacions: la Vilavella - Ptda Forns (Soci), Miramar - Platja (Inforatge), San Fulgencio - Centre & San Fulgencio - Urb. La Marina (MeteOrihuela), Ontinyent - els Gínjols (Soci), Orba (Ajuntament Soci), Xixona - Monnegre de Baix (Soci), Benifairó de la Valldigna - Cambro/Pator (Soci) - - -